sensor_id;sensor_type;location;lat;lon;timestamp;pressure;altitude;pressure_sealevel;temperature;humidity
49342;BME280;35210;41.606;-87.602;2023-01-28T00:01:00;98959.16;;;3.16;84.08
49342;BME280;35210;41.606;-87.602;2023-01-28T00:03:31;98965.38;;;3.14;84.62
49342;BME280;35210;41.606;-87.602;2023-01-28T00:06:03;98975.88;;;3.12;85.08
49342;BME280;35210;41.606;-87.602;2023-01-28T00:08:31;98987.84;;;3.16;83.52
49342;BME280;35210;41.606;-87.602;2023-01-28T00:11:00;98990.44;;;3.16;83.07
49342;BME280;35210;41.606;-87.602;2023-01-28T00:13:29;98986.25;;;3.14;81.97
49342;BME280;35210;41.606;-87.602;2023-01-28T00:15:59;98983.31;;;3.20;80.67
49342;BME280;35210;41.606;-87.602;2023-01-28T00:18:27;98988.50;;;3.04;80.38
49342;BME280;35210;41.606;-87.602;2023-01-28T00:20:57;99001.47;;;3.06;80.41
49342;BME280;35210;41.606;-87.602;2023-01-28T00:23:29;99002.81;;;2.97;80.14
49342;BME280;35210;41.606;-87.602;2023-01-28T00:25:58;99011.88;;;2.90;79.88
49342;BME280;35210;41.606;-87.602;2023-01-28T00:28:26;99015.91;;;2.80;78.98
49342;BME280;35210;41.606;-87.602;2023-01-28T00:30:54;99019.56;;;2.93;80.10
49342;BME280;35210;41.606;-87.602;2023-01-28T00:33:22;99025.31;;;2.82;80.20
49342;BME280;35210;41.606;-87.602;2023-01-28T00:35:58;99032.38;;;2.80;79.37
49342;BME280;35210;41.606;-87.602;2023-01-28T00:38:28;99044.56;;;2.80;79.11
49342;BME280;35210;41.606;-87.602;2023-01-28T00:41:06;99041.69;;;2.69;77.88
49342;BME280;35210;41.606;-87.602;2023-01-28T00:43:35;99048.97;;;2.62;78.36
49342;BME280;35210;41.606;-87.602;2023-01-28T00:46:05;99061.75;;;2.67;77.80
49342;BME280;35210;41.606;-87.602;2023-01-28T00:48:34;99056.63;;;2.48;77.69
49342;BME280;35210;41.606;-87.602;2023-01-28T00:51:02;99069.72;;;2.46;76.75
49342;BME280;35210;41.606;-87.602;2023-01-28T00:53:32;99072.50;;;2.43;76.33
49342;BME280;35210;41.606;-87.602;2023-01-28T00:56:02;99068.66;;;2.33;76.98
49342;BME280;35210;41.606;-87.602;2023-01-28T00:58:30;99077.00;;;2.40;76.92
49342;BME280;35210;41.606;-87.602;2023-01-28T01:01:06;99089.13;;;2.41;77.24
49342;BME280;35210;41.606;-87.602;2023-01-28T01:03:36;99097.84;;;2.40;77.89
49342;BME280;35210;41.606;-87.602;2023-01-28T01:06:05;99097.63;;;2.44;79.18
49342;BME280;35210;41.606;-87.602;2023-01-28T01:08:35;99109.97;;;2.41;78.44
49342;BME280;35210;41.606;-87.602;2023-01-28T01:11:06;99118.47;;;2.44;79.30
49342;BME280;35210;41.606;-87.602;2023-01-28T01:13:34;99136.47;;;2.31;79.05
49342;BME280;35210;41.606;-87.602;2023-01-28T01:16:06;99137.69;;;2.24;80.41
49342;BME280;35210;41.606;-87.602;2023-01-28T01:18:36;99135.69;;;2.29;80.26
49342;BME280;35210;41.606;-87.602;2023-01-28T01:21:08;99145.28;;;2.29;79.85
49342;BME280;35210;41.606;-87.602;2023-01-28T01:23:38;99155.41;;;2.35;79.66
49342;BME280;35210;41.606;-87.602;2023-01-28T01:26:07;99171.47;;;2.26;79.04
49342;BME280;35210;41.606;-87.602;2023-01-28T01:28:35;99180.81;;;2.13;77.26
49342;BME280;35210;41.606;-87.602;2023-01-28T01:31:06;99183.06;;;2.02;76.83
49342;BME280;35210;41.606;-87.602;2023-01-28T01:33:35;99187.84;;;2.11;76.94
49342;BME280;35210;41.606;-87.602;2023-01-28T01:36:05;99192.28;;;2.09;76.03
49342;BME280;35210;41.606;-87.602;2023-01-28T01:38:34;99199.25;;;2.08;75.10
49342;BME280;35210;41.606;-87.602;2023-01-28T01:41:04;99215.38;;;1.97;75.34
49342;BME280;35210;41.606;-87.602;2023-01-28T01:43:47;99210.00;;;1.82;75.12
49342;BME280;35210;41.606;-87.602;2023-01-28T01:46:16;99216.19;;;1.79;75.82
49342;BME280;35210;41.606;-87.602;2023-01-28T01:48:46;99231.19;;;1.74;75.40
49342;BME280;35210;41.606;-87.602;2023-01-28T01:51:20;99252.25;;;1.68;76.00
49342;BME280;35210;41.606;-87.602;2023-01-28T01:53:52;99244.06;;;1.57;74.63
49342;BME280;35210;41.606;-87.602;2023-01-28T01:56:27;99255.19;;;1.42;74.10
49342;BME280;35210;41.606;-87.602;2023-01-28T01:58:58;99251.13;;;1.14;74.94
49342;BME280;35210;41.606;-87.602;2023-01-28T02:01:28;99255.16;;;1.21;74.87
49342;BME280;35210;41.606;-87.602;2023-01-28T02:04:02;99257.63;;;1.24;74.55
49342;BME280;35210;41.606;-87.602;2023-01-28T02:06:32;99256.53;;;1.10;74.72
49342;BME280;35210;41.606;-87.602;2023-01-28T02:09:02;99263.34;;;1.12;74.34
49342;BME280;35210;41.606;-87.602;2023-01-28T02:11:33;99267.47;;;0.96;73.91
49342;BME280;35210;41.606;-87.602;2023-01-28T02:14:03;99271.78;;;0.75;73.93
49342;BME280;35210;41.606;-87.602;2023-01-28T02:16:32;99270.63;;;0.82;74.59
49342;BME280;35210;41.606;-87.602;2023-01-28T02:19:01;99290.59;;;0.60;74.03
49342;BME280;35210;41.606;-87.602;2023-01-28T02:21:52;99305.97;;;0.66;75.01
49342;BME280;35210;41.606;-87.602;2023-01-28T02:24:47;99307.16;;;0.57;74.56
49342;BME280;35210;41.606;-87.602;2023-01-28T02:27:28;99310.25;;;0.67;73.88
49342;BME280;35210;41.606;-87.602;2023-01-28T02:30:05;99316.75;;;0.55;74.17
49342;BME280;35210;41.606;-87.602;2023-01-28T02:32:39;99335.63;;;0.37;73.99
49342;BME280;35210;41.606;-87.602;2023-01-28T02:35:14;99349.59;;;0.35;74.10
49342;BME280;35210;41.606;-87.602;2023-01-28T02:37:48;99365.16;;;0.11;73.89
49342;BME280;35210;41.606;-87.602;2023-01-28T02:40:22;99351.66;;;0.25;73.48
49342;BME280;35210;41.606;-87.602;2023-01-28T02:42:54;99350.09;;;0.21;74.01
49342;BME280;35210;41.606;-87.602;2023-01-28T02:45:26;99360.47;;;0.21;73.55
49342;BME280;35210;41.606;-87.602;2023-01-28T02:48:17;99370.28;;;0.13;73.75
49342;BME280;35210;41.606;-87.602;2023-01-28T02:50:49;99374.91;;;0.05;73.62
49342;BME280;35210;41.606;-87.602;2023-01-28T02:53:24;99374.69;;;0.11;72.86
49342;BME280;35210;41.606;-87.602;2023-01-28T02:56:17;99381.25;;;-0.03;74.21
49342;BME280;35210;41.606;-87.602;2023-01-28T02:58:52;99387.94;;;0.03;73.91
49342;BME280;35210;41.606;-87.602;2023-01-28T03:01:29;99401.88;;;0.00;73.55
49342;BME280;35210;41.606;-87.602;2023-01-28T03:04:03;99408.75;;;0.02;73.65
49342;BME280;35210;41.606;-87.602;2023-01-28T03:06:38;99419.53;;;-0.09;73.66
49342;BME280;35210;41.606;-87.602;2023-01-28T03:09:10;99413.38;;;-0.07;73.79
49342;BME280;35210;41.606;-87.602;2023-01-28T03:11:53;99403.16;;;-0.11;73.23
49342;BME280;35210;41.606;-87.602;2023-01-28T03:14:39;99413.59;;;-0.13;73.39
49342;BME280;35210;41.606;-87.602;2023-01-28T03:17:32;99414.47;;;-0.39;74.35
49342;BME280;35210;41.606;-87.602;2023-01-28T03:20:24;99422.66;;;-0.51;74.68
49342;BME280;35210;41.606;-87.602;2023-01-28T03:23:15;99429.97;;;-0.37;74.82
49342;BME280;35210;41.606;-87.602;2023-01-28T03:26:06;99436.88;;;-0.36;74.03
49342;BME280;35210;41.606;-87.602;2023-01-28T03:28:53;99452.72;;;-0.45;73.89
49342;BME280;35210;41.606;-87.602;2023-01-28T03:31:44;99456.72;;;-0.35;74.29
49342;BME280;35210;41.606;-87.602;2023-01-28T03:34:30;99488.81;;;-0.38;73.87
49342;BME280;35210;41.606;-87.602;2023-01-28T03:37:16;99488.28;;;-0.49;72.58
49342;BME280;35210;41.606;-87.602;2023-01-28T03:39:48;99493.66;;;-0.55;72.92
49342;BME280;35210;41.606;-87.602;2023-01-28T03:42:16;99508.47;;;-0.58;72.93
49342;BME280;35210;41.606;-87.602;2023-01-28T03:44:45;99498.72;;;-0.50;73.33
49342;BME280;35210;41.606;-87.602;2023-01-28T03:47:17;99515.16;;;-0.51;71.75
49342;BME280;35210;41.606;-87.602;2023-01-28T03:49:48;99525.31;;;-0.44;71.50
49342;BME280;35210;41.606;-87.602;2023-01-28T03:52:18;99543.16;;;-0.62;70.73
49342;BME280;35210;41.606;-87.602;2023-01-28T03:54:47;99534.59;;;-0.64;70.95
49342;BME280;35210;41.606;-87.602;2023-01-28T03:57:19;99542.84;;;-0.80;70.32
49342;BME280;35210;41.606;-87.602;2023-01-28T03:59:48;99548.03;;;-0.80;70.54
49342;BME280;35210;41.606;-87.602;2023-01-28T04:02:18;99559.56;;;-0.90;69.88
49342;BME280;35210;41.606;-87.602;2023-01-28T04:04:48;99562.97;;;-0.88;69.70
49342;BME280;35210;41.606;-87.602;2023-01-28T04:07:16;99575.41;;;-1.01;69.50
49342;BME280;35210;41.606;-87.602;2023-01-28T04:09:45;99576.22;;;-0.98;69.18
49342;BME280;35210;41.606;-87.602;2023-01-28T04:12:13;99584.81;;;-0.96;69.42
49342;BME280;35210;41.606;-87.602;2023-01-28T04:14:41;99593.44;;;-0.96;68.46
49342;BME280;35210;41.606;-87.602;2023-01-28T04:17:09;99598.13;;;-1.10;68.46
49342;BME280;35210;41.606;-87.602;2023-01-28T04:19:37;99597.16;;;-1.06;68.86
49342;BME280;35210;41.606;-87.602;2023-01-28T04:22:09;99602.50;;;-1.12;69.25
49342;BME280;35210;41.606;-87.602;2023-01-28T04:24:38;99596.19;;;-1.02;71.36
49342;BME280;35210;41.606;-87.602;2023-01-28T04:27:06;99610.84;;;-1.01;68.82
49342;BME280;35210;41.606;-87.602;2023-01-28T04:29:35;99605.19;;;-0.84;67.87
49342;BME280;35210;41.606;-87.602;2023-01-28T04:32:03;99626.72;;;-0.81;67.50
49342;BME280;35210;41.606;-87.602;2023-01-28T04:34:31;99630.59;;;-0.97;67.70
49342;BME280;35210;41.606;-87.602;2023-01-28T04:36:59;99640.00;;;-0.93;67.86
49342;BME280;35210;41.606;-87.602;2023-01-28T04:39:29;99650.34;;;-0.91;67.62
49342;BME280;35210;41.606;-87.602;2023-01-28T04:41:57;99644.28;;;-0.92;67.85
49342;BME280;35210;41.606;-87.602;2023-01-28T04:44:25;99652.59;;;-1.12;68.79
49342;BME280;35210;41.606;-87.602;2023-01-28T04:46:53;99647.56;;;-1.18;69.14
49342;BME280;35210;41.606;-87.602;2023-01-28T04:49:21;99654.41;;;-1.15;70.07
49342;BME280;35210;41.606;-87.602;2023-01-28T04:51:49;99663.00;;;-1.13;69.94
49342;BME280;35210;41.606;-87.602;2023-01-28T04:54:17;99660.16;;;-1.04;70.25
49342;BME280;35210;41.606;-87.602;2023-01-28T04:56:47;99663.81;;;-1.11;69.56
49342;BME280;35210;41.606;-87.602;2023-01-28T04:59:15;99670.69;;;-1.10;69.92
49342;BME280;35210;41.606;-87.602;2023-01-28T05:01:45;99677.31;;;-0.98;69.60
49342;BME280;35210;41.606;-87.602;2023-01-28T05:04:13;99684.88;;;-0.91;69.83
49342;BME280;35210;41.606;-87.602;2023-01-28T05:06:42;99696.03;;;-0.87;70.17
49342;BME280;35210;41.606;-87.602;2023-01-28T05:09:10;99676.03;;;-0.84;70.13
49342;BME280;35210;41.606;-87.602;2023-01-28T05:11:38;99686.53;;;-0.88;70.28
49342;BME280;35210;41.606;-87.602;2023-01-28T05:14:08;99685.44;;;-0.80;70.68
49342;BME280;35210;41.606;-87.602;2023-01-28T05:16:36;99675.00;;;-0.77;70.43
49342;BME280;35210;41.606;-87.602;2023-01-28T05:19:05;99678.53;;;-0.79;69.75
49342;BME280;35210;41.606;-87.602;2023-01-28T05:21:34;99689.50;;;-0.71;70.08
49342;BME280;35210;41.606;-87.602;2023-01-28T05:24:02;99673.66;;;-0.60;69.05
49342;BME280;35210;41.606;-87.602;2023-01-28T05:26:30;99678.31;;;-0.73;69.04
49342;BME280;35210;41.606;-87.602;2023-01-28T05:29:00;99682.13;;;-0.85;69.63
49342;BME280;35210;41.606;-87.602;2023-01-28T05:31:30;99691.59;;;-0.84;69.77
49342;BME280;35210;41.606;-87.602;2023-01-28T05:33:58;99708.13;;;-0.88;69.39
49342;BME280;35210;41.606;-87.602;2023-01-28T05:36:26;99699.63;;;-0.93;70.21
49342;BME280;35210;41.606;-87.602;2023-01-28T05:38:54;99710.06;;;-0.96;70.24
49342;BME280;35210;41.606;-87.602;2023-01-28T05:41:23;99716.75;;;-0.87;70.41
49342;BME280;35210;41.606;-87.602;2023-01-28T05:43:51;99733.13;;;-0.85;69.59
49342;BME280;35210;41.606;-87.602;2023-01-28T05:46:19;99747.06;;;-0.89;70.12
49342;BME280;35210;41.606;-87.602;2023-01-28T05:48:49;99741.78;;;-0.86;69.06
49342;BME280;35210;41.606;-87.602;2023-01-28T05:51:17;99731.53;;;-0.91;69.59
49342;BME280;35210;41.606;-87.602;2023-01-28T05:53:45;99734.44;;;-1.03;69.79
49342;BME280;35210;41.606;-87.602;2023-01-28T05:56:13;99732.59;;;-0.98;70.59
49342;BME280;35210;41.606;-87.602;2023-01-28T05:58:42;99746.19;;;-0.90;70.37
49342;BME280;35210;41.606;-87.602;2023-01-28T06:01:10;99772.91;;;-0.86;70.31
49342;BME280;35210;41.606;-87.602;2023-01-28T06:03:39;99772.06;;;-0.87;69.91
49342;BME280;35210;41.606;-87.602;2023-01-28T06:06:08;99771.53;;;-1.01;68.88
49342;BME280;35210;41.606;-87.602;2023-01-28T06:08:36;99770.72;;;-1.03;69.15
49342;BME280;35210;41.606;-87.602;2023-01-28T06:11:04;99784.50;;;-1.01;68.48
49342;BME280;35210;41.606;-87.602;2023-01-28T06:13:32;99799.97;;;-0.98;67.89
49342;BME280;35210;41.606;-87.602;2023-01-28T06:16:01;99818.03;;;-0.95;67.87
49342;BME280;35210;41.606;-87.602;2023-01-28T06:18:29;99817.38;;;-1.03;66.98
49342;BME280;35210;41.606;-87.602;2023-01-28T06:20:57;99811.38;;;-1.05;67.64
49342;BME280;35210;41.606;-87.602;2023-01-28T06:23:27;99805.41;;;-1.09;67.13
49342;BME280;35210;41.606;-87.602;2023-01-28T06:25:55;99807.16;;;-1.09;67.36
49342;BME280;35210;41.606;-87.602;2023-01-28T06:28:24;99806.41;;;-1.14;67.25
49342;BME280;35210;41.606;-87.602;2023-01-28T06:30:53;99800.53;;;-1.21;66.93
49342;BME280;35210;41.606;-87.602;2023-01-28T06:33:22;99802.00;;;-1.48;68.13
49342;BME280;35210;41.606;-87.602;2023-01-28T06:35:51;99802.16;;;-1.54;68.43
49342;BME280;35210;41.606;-87.602;2023-01-28T06:38:19;99804.59;;;-1.48;68.71
49342;BME280;35210;41.606;-87.602;2023-01-28T06:40:52;99820.00;;;-1.42;68.27
49342;BME280;35210;41.606;-87.602;2023-01-28T06:43:21;99822.31;;;-1.29;68.48
49342;BME280;35210;41.606;-87.602;2023-01-28T06:45:52;99834.25;;;-1.22;68.60
49342;BME280;35210;41.606;-87.602;2023-01-28T06:48:21;99840.16;;;-1.17;68.41
49342;BME280;35210;41.606;-87.602;2023-01-28T06:50:50;99833.50;;;-1.27;67.72
49342;BME280;35210;41.606;-87.602;2023-01-28T06:53:19;99835.34;;;-1.33;67.94
49342;BME280;35210;41.606;-87.602;2023-01-28T06:55:48;99830.97;;;-1.30;67.78
49342;BME280;35210;41.606;-87.602;2023-01-28T06:58:18;99824.84;;;-1.26;67.37
49342;BME280;35210;41.606;-87.602;2023-01-28T07:00:46;99823.34;;;-1.37;67.18
49342;BME280;35210;41.606;-87.602;2023-01-28T07:03:14;99823.41;;;-1.40;67.51
49342;BME280;35210;41.606;-87.602;2023-01-28T07:05:42;99828.63;;;-1.41;66.81
49342;BME280;35210;41.606;-87.602;2023-01-28T07:08:10;99823.41;;;-1.40;67.35
49342;BME280;35210;41.606;-87.602;2023-01-28T07:10:38;99828.38;;;-1.30;67.66
49342;BME280;35210;41.606;-87.602;2023-01-28T07:13:07;99824.91;;;-1.29;67.24
49342;BME280;35210;41.606;-87.602;2023-01-28T07:15:37;99818.84;;;-1.28;66.64
49342;BME280;35210;41.606;-87.602;2023-01-28T07:18:05;99827.38;;;-1.25;67.21
49342;BME280;35210;41.606;-87.602;2023-01-28T07:20:33;99832.47;;;-1.20;67.00
49342;BME280;35210;41.606;-87.602;2023-01-28T07:23:01;99833.34;;;-1.21;66.64
49342;BME280;35210;41.606;-87.602;2023-01-28T07:25:29;99836.03;;;-1.26;66.22
49342;BME280;35210;41.606;-87.602;2023-01-28T07:27:57;99848.25;;;-1.31;66.49
49342;BME280;35210;41.606;-87.602;2023-01-28T07:30:26;99857.69;;;-1.28;66.80
49342;BME280;35210;41.606;-87.602;2023-01-28T07:32:57;99863.78;;;-1.31;65.55
49342;BME280;35210;41.606;-87.602;2023-01-28T07:35:26;99867.19;;;-1.29;65.96
49342;BME280;35210;41.606;-87.602;2023-01-28T07:37:56;99874.13;;;-1.29;66.28
49342;BME280;35210;41.606;-87.602;2023-01-28T07:40:25;99873.31;;;-1.32;65.96
49342;BME280;35210;41.606;-87.602;2023-01-28T07:42:53;99880.13;;;-1.27;65.74
49342;BME280;35210;41.606;-87.602;2023-01-28T07:45:22;99889.78;;;-1.34;65.47
49342;BME280;35210;41.606;-87.602;2023-01-28T07:47:56;99882.28;;;-1.48;65.69
49342;BME280;35210;41.606;-87.602;2023-01-28T07:50:26;99887.94;;;-1.69;66.69
49342;BME280;35210;41.606;-87.602;2023-01-28T07:52:55;99889.56;;;-1.65;67.30
49342;BME280;35210;41.606;-87.602;2023-01-28T07:55:24;99898.00;;;-1.55;67.19
49342;BME280;35210;41.606;-87.602;2023-01-28T07:57:55;99905.88;;;-1.60;65.55
49342;BME280;35210;41.606;-87.602;2023-01-28T08:00:24;99895.50;;;-1.58;64.97
49342;BME280;35210;41.606;-87.602;2023-01-28T08:02:57;99896.47;;;-1.64;65.97
49342;BME280;35210;41.606;-87.602;2023-01-28T08:05:30;99908.47;;;-1.60;66.74
49342;BME280;35210;41.606;-87.602;2023-01-28T08:08:00;99917.06;;;-1.58;66.57
49342;BME280;35210;41.606;-87.602;2023-01-28T08:10:28;99906.84;;;-1.66;65.59
49342;BME280;35210;41.606;-87.602;2023-01-28T08:12:57;99924.84;;;-1.59;66.55
49342;BME280;35210;41.606;-87.602;2023-01-28T08:15:26;99927.34;;;-1.55;66.58
49342;BME280;35210;41.606;-87.602;2023-01-28T08:17:56;99923.91;;;-1.55;65.58
49342;BME280;35210;41.606;-87.602;2023-01-28T08:20:26;99924.94;;;-1.64;65.86
49342;BME280;35210;41.606;-87.602;2023-01-28T08:23:04;99926.50;;;-1.55;66.57
49342;BME280;35210;41.606;-87.602;2023-01-28T08:25:33;99939.31;;;-1.49;67.05
49342;BME280;35210;41.606;-87.602;2023-01-28T08:28:01;99945.38;;;-1.49;66.01
49342;BME280;35210;41.606;-87.602;2023-01-28T08:30:29;99948.66;;;-1.42;66.14
49342;BME280;35210;41.606;-87.602;2023-01-28T08:32:59;99958.16;;;-1.43;65.86
49342;BME280;35210;41.606;-87.602;2023-01-28T08:35:28;99949.31;;;-1.33;65.48
49342;BME280;35210;41.606;-87.602;2023-01-28T08:37:58;99951.16;;;-1.38;65.43
49342;BME280;35210;41.606;-87.602;2023-01-28T08:40:27;99940.69;;;-1.33;65.86
49342;BME280;35210;41.606;-87.602;2023-01-28T08:42:56;99953.56;;;-1.28;65.57
49342;BME280;35210;41.606;-87.602;2023-01-28T08:45:26;99945.53;;;-1.16;65.49
49342;BME280;35210;41.606;-87.602;2023-01-28T08:47:58;99954.16;;;-1.16;64.95
49342;BME280;35210;41.606;-87.602;2023-01-28T08:50:29;99965.34;;;-1.14;65.12
49342;BME280;35210;41.606;-87.602;2023-01-28T08:52:59;99961.06;;;-1.16;64.89
49342;BME280;35210;41.606;-87.602;2023-01-28T08:55:28;99969.59;;;-1.11;65.28
49342;BME280;35210;41.606;-87.602;2023-01-28T08:57:56;99970.44;;;-1.09;65.19
49342;BME280;35210;41.606;-87.602;2023-01-28T09:00:24;99972.97;;;-1.06;65.25
49342;BME280;35210;41.606;-87.602;2023-01-28T09:02:53;99992.03;;;-1.10;64.55
49342;BME280;35210;41.606;-87.602;2023-01-28T09:05:23;99998.09;;;-1.10;64.76
49342;BME280;35210;41.606;-87.602;2023-01-28T09:07:52;100005.81;;;-1.08;64.61
49342;BME280;35210;41.606;-87.602;2023-01-28T09:10:21;99998.94;;;-1.09;65.01
49342;BME280;35210;41.606;-87.602;2023-01-28T09:12:49;99995.41;;;-1.05;64.98
49342;BME280;35210;41.606;-87.602;2023-01-28T09:15:17;99994.56;;;-1.07;64.58
49342;BME280;35210;41.606;-87.602;2023-01-28T09:17:45;99998.97;;;-1.11;64.26
49342;BME280;35210;41.606;-87.602;2023-01-28T09:20:14;100003.34;;;-1.14;63.92
49342;BME280;35210;41.606;-87.602;2023-01-28T09:22:44;99996.44;;;-1.14;64.42
49342;BME280;35210;41.606;-87.602;2023-01-28T09:25:13;99988.50;;;-1.06;64.43
49342;BME280;35210;41.606;-87.602;2023-01-28T09:27:41;99987.56;;;-1.02;64.83
49342;BME280;35210;41.606;-87.602;2023-01-28T09:30:10;99982.34;;;-1.01;64.79
49342;BME280;35210;41.606;-87.602;2023-01-28T09:32:38;99989.94;;;-0.93;64.82
49342;BME280;35210;41.606;-87.602;2023-01-28T09:35:07;99981.38;;;-0.96;64.40
49342;BME280;35210;41.606;-87.602;2023-01-28T09:37:35;99978.69;;;-0.92;64.73
49342;BME280;35210;41.606;-87.602;2023-01-28T09:40:06;99964.81;;;-0.89;64.47
49342;BME280;35210;41.606;-87.602;2023-01-28T09:42:48;99969.16;;;-0.90;64.02
49342;BME280;35210;41.606;-87.602;2023-01-28T09:45:24;99962.28;;;-0.92;64.09
49342;BME280;35210;41.606;-87.602;2023-01-28T09:47:58;99958.75;;;-0.88;63.51
49342;BME280;35210;41.606;-87.602;2023-01-28T09:50:31;99952.78;;;-0.92;63.02
49342;BME280;35210;41.606;-87.602;2023-01-28T09:53:04;99958.03;;;-0.95;63.24
49342;BME280;35210;41.606;-87.602;2023-01-28T09:55:37;99959.66;;;-0.91;63.78
49342;BME280;35210;41.606;-87.602;2023-01-28T09:58:10;99958.75;;;-0.88;64.07
49342;BME280;35210;41.606;-87.602;2023-01-28T10:00:49;99968.19;;;-0.86;63.85
49342;BME280;35210;41.606;-87.602;2023-01-28T10:03:36;99973.44;;;-0.89;63.68
49342;BME280;35210;41.606;-87.602;2023-01-28T10:06:18;99982.13;;;-0.90;63.88
49342;BME280;35210;41.606;-87.602;2023-01-28T10:09:14;99998.50;;;-0.88;63.93
49342;BME280;35210;41.606;-87.602;2023-01-28T10:11:58;100007.94;;;-0.85;64.02
49342;BME280;35210;41.606;-87.602;2023-01-28T10:14:42;100019.09;;;-0.82;64.00
49342;BME280;35210;41.606;-87.602;2023-01-28T10:17:16;100026.06;;;-0.84;64.06
49342;BME280;35210;41.606;-87.602;2023-01-28T10:19:53;100031.25;;;-0.84;63.53
49342;BME280;35210;41.606;-87.602;2023-01-28T10:22:27;100039.97;;;-0.88;62.59
49342;BME280;35210;41.606;-87.602;2023-01-28T10:25:02;100045.22;;;-0.91;62.42
49342;BME280;35210;41.606;-87.602;2023-01-28T10:27:36;100045.31;;;-0.95;62.77
49342;BME280;35210;41.606;-87.602;2023-01-28T10:30:17;100046.13;;;-0.93;63.20
49342;BME280;35210;41.606;-87.602;2023-01-28T10:32:51;100032.34;;;-0.95;62.87
49342;BME280;35210;41.606;-87.602;2023-01-28T10:35:20;100031.50;;;-0.96;62.89
49342;BME280;35210;41.606;-87.602;2023-01-28T10:37:49;100039.34;;;-0.99;62.42
49342;BME280;35210;41.606;-87.602;2023-01-28T10:40:19;100035.88;;;-1.00;62.34
49342;BME280;35210;41.606;-87.602;2023-01-28T10:42:50;100039.31;;;-0.97;62.75
49342;BME280;35210;41.606;-87.602;2023-01-28T10:45:20;100043.56;;;-0.95;62.85
49342;BME280;35210;41.606;-87.602;2023-01-28T10:47:53;100044.38;;;-0.91;63.13
49342;BME280;35210;41.606;-87.602;2023-01-28T10:50:25;100032.19;;;-0.88;63.16
49342;BME280;35210;41.606;-87.602;2023-01-28T10:52:55;100035.59;;;-0.86;63.12
49342;BME280;35210;41.606;-87.602;2023-01-28T10:55:26;100029.53;;;-0.85;63.22
49342;BME280;35210;41.606;-87.602;2023-01-28T10:57:58;100031.31;;;-0.87;62.90
49342;BME280;35210;41.606;-87.602;2023-01-28T11:00:33;100020.88;;;-0.84;63.23
49342;BME280;35210;41.606;-87.602;2023-01-28T11:03:03;100019.97;;;-0.83;62.92
49342;BME280;35210;41.606;-87.602;2023-01-28T11:05:32;100024.31;;;-0.83;62.85
49342;BME280;35210;41.606;-87.602;2023-01-28T11:08:09;100032.09;;;-0.83;62.87
49342;BME280;35210;41.606;-87.602;2023-01-28T11:10:40;100045.06;;;-0.83;63.21
49342;BME280;35210;41.606;-87.602;2023-01-28T11:13:17;100053.63;;;-0.80;63.66
49342;BME280;35210;41.606;-87.602;2023-01-28T11:15:47;100061.44;;;-0.81;63.12
49342;BME280;35210;41.606;-87.602;2023-01-28T11:18:18;100065.78;;;-0.82;63.38
49342;BME280;35210;41.606;-87.602;2023-01-28T11:20:52;100067.53;;;-0.84;63.22
49342;BME280;35210;41.606;-87.602;2023-01-28T11:23:24;100066.72;;;-0.86;63.34
49342;BME280;35210;41.606;-87.602;2023-01-28T11:26:01;100067.47;;;-0.81;63.51
49342;BME280;35210;41.606;-87.602;2023-01-28T11:28:34;100065.84;;;-0.85;63.48
49342;BME280;35210;41.606;-87.602;2023-01-28T11:31:08;100072.84;;;-0.90;63.63
49342;BME280;35210;41.606;-87.602;2023-01-28T11:33:43;100065.97;;;-0.91;63.60
49342;BME280;35210;41.606;-87.602;2023-01-28T11:36:14;100078.94;;;-0.92;63.54
49342;BME280;35210;41.606;-87.602;2023-01-28T11:38:53;100082.56;;;-1.01;62.35
49342;BME280;35210;41.606;-87.602;2023-01-28T11:41:27;100088.66;;;-1.02;62.60
49342;BME280;35210;41.606;-87.602;2023-01-28T11:43:59;100093.81;;;-1.02;62.40
49342;BME280;35210;41.606;-87.602;2023-01-28T11:46:54;100102.44;;;-1.00;63.01
49342;BME280;35210;41.606;-87.602;2023-01-28T11:49:31;100095.56;;;-1.03;63.00
49342;BME280;35210;41.606;-87.602;2023-01-28T11:52:11;100093.00;;;-1.04;62.76
49342;BME280;35210;41.606;-87.602;2023-01-28T11:54:50;100101.63;;;-1.04;62.83
49342;BME280;35210;41.606;-87.602;2023-01-28T11:57:25;100109.41;;;-1.04;63.17
49342;BME280;35210;41.606;-87.602;2023-01-28T12:00:24;100104.13;;;-0.99;63.37
49342;BME280;35210;41.606;-87.602;2023-01-28T12:03:08;100104.13;;;-0.99;63.34
49342;BME280;35210;41.606;-87.602;2023-01-28T12:05:46;100100.59;;;-0.95;62.98
49342;BME280;35210;41.606;-87.602;2023-01-28T12:08:20;100103.25;;;-0.98;62.66
49342;BME280;35210;41.606;-87.602;2023-01-28T12:11:08;100089.34;;;-0.94;62.74
49342;BME280;35210;41.606;-87.602;2023-01-28T12:13:54;100086.00;;;-0.99;62.62
49342;BME280;35210;41.606;-87.602;2023-01-28T12:16:50;100067.84;;;-0.99;62.62
49342;BME280;35210;41.606;-87.602;2023-01-28T12:19:42;100078.22;;;-0.99;62.62
49342;BME280;35210;41.606;-87.602;2023-01-28T12:25:27;100088.59;;;-0.99;63.15
49342;BME280;35210;41.606;-87.602;2023-01-28T12:28:06;100092.06;;;-1.00;63.18
49342;BME280;35210;41.606;-87.602;2023-01-28T12:31:11;100101.56;;;-1.01;63.20
49342;BME280;35210;41.606;-87.602;2023-01-28T12:34:00;100095.66;;;-1.07;62.20
49342;BME280;35210;41.606;-87.602;2023-01-28T12:36:40;100095.81;;;-1.16;62.20
49342;BME280;35210;41.606;-87.602;2023-01-28T12:39:18;100088.19;;;-1.24;62.45
49342;BME280;35210;41.606;-87.602;2023-01-28T12:42:02;100101.19;;;-1.25;63.00
49342;BME280;35210;41.606;-87.602;2023-01-28T12:44:36;100100.28;;;-1.24;63.19
49342;BME280;35210;41.606;-87.602;2023-01-28T12:47:11;100108.00;;;-1.21;63.17
49342;BME280;35210;41.606;-87.602;2023-01-28T12:49:47;100110.56;;;-1.20;63.61
49342;BME280;35210;41.606;-87.602;2023-01-28T12:52:20;100111.44;;;-1.19;63.59
49342;BME280;35210;41.606;-87.602;2023-01-28T12:54:56;100121.78;;;-1.19;63.56
49342;BME280;35210;41.606;-87.602;2023-01-28T12:57:28;100120.09;;;-1.20;63.33
49342;BME280;35210;41.606;-87.602;2023-01-28T13:00:05;100124.34;;;-1.16;63.45
49342;BME280;35210;41.606;-87.602;2023-01-28T13:02:50;100132.06;;;-1.13;63.55
49342;BME280;35210;41.606;-87.602;2023-01-28T13:05:27;100128.56;;;-1.11;63.69
49342;BME280;35210;41.606;-87.602;2023-01-28T13:08:02;100119.81;;;-1.05;63.71
49342;BME280;35210;41.606;-87.602;2023-01-28T13:10:37;100125.88;;;-1.06;63.88